sensor_id;sensor_type;location;lat;lon;timestamp;P1;durP1;ratioP1;P2;durP2;ratioP2
4182;SDS011;2105;52.300;9.182;2023-02-28T00:00:18;9.10;;;8.50;;
4182;SDS011;2105;52.300;9.182;2023-02-28T00:02:46;9.60;;;8.80;;
4182;SDS011;2105;52.300;9.182;2023-02-28T00:05:14;8.77;;;8.17;;
4182;SDS011;2105;52.300;9.182;2023-02-28T00:07:43;9.20;;;8.50;;
4182;SDS011;2105;52.300;9.182;2023-02-28T00:10:11;9.33;;;8.73;;
4182;SDS011;2105;52.300;9.182;2023-02-28T00:12:40;9.43;;;8.73;;
4182;SDS011;2105;52.300;9.182;2023-02-28T00:15:08;9.40;;;8.80;;
4182;SDS011;2105;52.300;9.182;2023-02-28T00:17:36;9.47;;;8.90;;
4182;SDS011;2105;52.300;9.182;2023-02-28T00:20:04;9.90;;;9.10;;
4182;SDS011;2105;52.300;9.182;2023-02-28T00:22:33;9.20;;;8.60;;
4182;SDS011;2105;52.300;9.182;2023-02-28T00:25:02;9.23;;;8.70;;
4182;SDS011;2105;52.300;9.182;2023-02-28T00:27:29;9.73;;;9.13;;
4182;SDS011;2105;52.300;9.182;2023-02-28T00:29:56;10.10;;;9.40;;
4182;SDS011;2105;52.300;9.182;2023-02-28T00:32:23;10.10;;;9.50;;
4182;SDS011;2105;52.300;9.182;2023-02-28T00:34:49;13.27;;;10.77;;
4182;SDS011;2105;52.300;9.182;2023-02-28T00:37:16;10.90;;;10.20;;
4182;SDS011;2105;52.300;9.182;2023-02-28T00:39:43;11.43;;;10.50;;
4182;SDS011;2105;52.300;9.182;2023-02-28T00:42:11;11.50;;;10.60;;
4182;SDS011;2105;52.300;9.182;2023-02-28T00:44:38;10.27;;;9.70;;
4182;SDS011;2105;52.300;9.182;2023-02-28T00:47:05;10.90;;;10.00;;
4182;SDS011;2105;52.300;9.182;2023-02-28T00:49:32;10.30;;;9.70;;
4182;SDS011;2105;52.300;9.182;2023-02-28T00:51:59;10.23;;;9.53;;
4182;SDS011;2105;52.300;9.182;2023-02-28T00:54:25;10.00;;;9.20;;
4182;SDS011;2105;52.300;9.182;2023-02-28T00:56:52;9.50;;;8.70;;
4182;SDS011;2105;52.300;9.182;2023-02-28T00:59:20;9.93;;;9.00;;
4182;SDS011;2105;52.300;9.182;2023-02-28T01:01:47;9.13;;;8.53;;
4182;SDS011;2105;52.300;9.182;2023-02-28T01:04:14;9.47;;;8.40;;
4182;SDS011;2105;52.300;9.182;2023-02-28T01:06:42;9.63;;;9.03;;
4182;SDS011;2105;52.300;9.182;2023-02-28T01:09:08;9.23;;;8.70;;
4182;SDS011;2105;52.300;9.182;2023-02-28T01:11:36;9.00;;;8.40;;
4182;SDS011;2105;52.300;9.182;2023-02-28T01:14:04;9.40;;;8.80;;
4182;SDS011;2105;52.300;9.182;2023-02-28T01:16:32;9.10;;;8.60;;
4182;SDS011;2105;52.300;9.182;2023-02-28T01:18:59;9.30;;;8.80;;
4182;SDS011;2105;52.300;9.182;2023-02-28T01:21:26;10.60;;;9.60;;
4182;SDS011;2105;52.300;9.182;2023-02-28T01:23:55;9.80;;;9.30;;
4182;SDS011;2105;52.300;9.182;2023-02-28T01:26:23;10.80;;;9.80;;
4182;SDS011;2105;52.300;9.182;2023-02-28T01:28:51;9.70;;;9.00;;
4182;SDS011;2105;52.300;9.182;2023-02-28T01:31:19;9.97;;;9.27;;
4182;SDS011;2105;52.300;9.182;2023-02-28T01:33:48;10.57;;;9.80;;
4182;SDS011;2105;52.300;9.182;2023-02-28T01:36:16;9.50;;;8.90;;
4182;SDS011;2105;52.300;9.182;2023-02-28T01:38:44;9.50;;;8.90;;
4182;SDS011;2105;52.300;9.182;2023-02-28T01:41:14;9.47;;;8.97;;
4182;SDS011;2105;52.300;9.182;2023-02-28T01:43:57;10.20;;;9.60;;
4182;SDS011;2105;52.300;9.182;2023-02-28T01:46:28;10.10;;;9.50;;
4182;SDS011;2105;52.300;9.182;2023-02-28T01:48:58;10.20;;;9.60;;
4182;SDS011;2105;52.300;9.182;2023-02-28T01:51:33;10.63;;;10.03;;
4182;SDS011;2105;52.300;9.182;2023-02-28T01:54:05;11.17;;;10.20;;
4182;SDS011;2105;52.300;9.182;2023-02-28T01:56:38;10.50;;;9.80;;
4182;SDS011;2105;52.300;9.182;2023-02-28T01:59:10;10.00;;;9.40;;
4182;SDS011;2105;52.300;9.182;2023-02-28T02:01:40;9.70;;;9.10;;
4182;SDS011;2105;52.300;9.182;2023-02-28T02:04:08;10.53;;;9.60;;
4182;SDS011;2105;52.300;9.182;2023-02-28T02:06:37;10.73;;;9.93;;
4182;SDS011;2105;52.300;9.182;2023-02-28T02:09:06;10.33;;;9.57;;
4182;SDS011;2105;52.300;9.182;2023-02-28T02:11:33;10.40;;;9.60;;
4182;SDS011;2105;52.300;9.182;2023-02-28T02:14:06;10.43;;;9.80;;
4182;SDS011;2105;52.300;9.182;2023-02-28T02:17:00;11.13;;;10.33;;
4182;SDS011;2105;52.300;9.182;2023-02-28T02:19:47;10.10;;;9.50;;
4182;SDS011;2105;52.300;9.182;2023-02-28T02:22:41;10.10;;;9.50;;
4182;SDS011;2105;52.300;9.182;2023-02-28T02:25:39;9.90;;;9.30;;
4182;SDS011;2105;52.300;9.182;2023-02-28T02:28:32;9.70;;;9.10;;
4182;SDS011;2105;52.300;9.182;2023-02-28T02:31:26;10.20;;;9.40;;
4182;SDS011;2105;52.300;9.182;2023-02-28T02:34:24;10.07;;;9.37;;
4182;SDS011;2105;52.300;9.182;2023-02-28T02:37:09;8.83;;;8.33;;
4182;SDS011;2105;52.300;9.182;2023-02-28T02:39:54;9.20;;;8.70;;
4182;SDS011;2105;52.300;9.182;2023-02-28T02:42:29;10.00;;;9.30;;
4182;SDS011;2105;52.300;9.182;2023-02-28T02:45:03;10.10;;;9.50;;
4182;SDS011;2105;52.300;9.182;2023-02-28T02:47:35;8.93;;;8.43;;
4182;SDS011;2105;52.300;9.182;2023-02-28T02:50:05;9.00;;;8.50;;
4182;SDS011;2105;52.300;9.182;2023-02-28T02:52:38;9.17;;;8.60;;
4182;SDS011;2105;52.300;9.182;2023-02-28T02:55:09;9.63;;;9.00;;
4182;SDS011;2105;52.300;9.182;2023-02-28T02:57:40;9.70;;;8.83;;
4182;SDS011;2105;52.300;9.182;2023-02-28T03:00:13;9.90;;;9.20;;
4182;SDS011;2105;52.300;9.182;2023-02-28T03:02:44;9.90;;;9.30;;
4182;SDS011;2105;52.300;9.182;2023-02-28T03:05:17;9.63;;;9.03;;
4182;SDS011;2105;52.300;9.182;2023-02-28T03:10:49;9.03;;;8.53;;
4182;SDS011;2105;52.300;9.182;2023-02-28T03:13:25;9.20;;;8.70;;
4182;SDS011;2105;52.300;9.182;2023-02-28T03:16:22;9.50;;;8.70;;
4182;SDS011;2105;52.300;9.182;2023-02-28T03:19:01;9.20;;;8.60;;
4182;SDS011;2105;52.300;9.182;2023-02-28T03:21:37;9.40;;;8.70;;
4182;SDS011;2105;52.300;9.182;2023-02-28T03:24:10;10.23;;;9.00;;
4182;SDS011;2105;52.300;9.182;2023-02-28T03:26:41;9.67;;;9.00;;
4182;SDS011;2105;52.300;9.182;2023-02-28T03:29:17;9.40;;;8.47;;
4182;SDS011;2105;52.300;9.182;2023-02-28T03:31:50;8.70;;;8.20;;
4182;SDS011;2105;52.300;9.182;2023-02-28T03:34:25;8.83;;;8.33;;
4182;SDS011;2105;52.300;9.182;2023-02-28T03:36:57;8.80;;;8.30;;
4182;SDS011;2105;52.300;9.182;2023-02-28T03:39:29;8.93;;;8.43;;
4182;SDS011;2105;52.300;9.182;2023-02-28T03:42:02;9.30;;;8.60;;
4182;SDS011;2105;52.300;9.182;2023-02-28T03:44:33;9.30;;;8.70;;
4182;SDS011;2105;52.300;9.182;2023-02-28T03:47:06;11.40;;;9.07;;
4182;SDS011;2105;52.300;9.182;2023-02-28T03:49:36;9.00;;;8.50;;
4182;SDS011;2105;52.300;9.182;2023-02-28T03:52:10;9.37;;;8.87;;
4182;SDS011;2105;52.300;9.182;2023-02-28T03:54:39;9.53;;;8.93;;
4182;SDS011;2105;52.300;9.182;2023-02-28T03:57:10;8.50;;;8.10;;
4182;SDS011;2105;52.300;9.182;2023-02-28T03:59:44;9.60;;;8.83;;
4182;SDS011;2105;52.300;9.182;2023-02-28T04:02:15;9.20;;;8.70;;
4182;SDS011;2105;52.300;9.182;2023-02-28T04:04:41;9.13;;;8.63;;
4182;SDS011;2105;52.300;9.182;2023-02-28T04:07:15;9.10;;;8.57;;
4182;SDS011;2105;52.300;9.182;2023-02-28T04:09:42;8.80;;;8.30;;
4182;SDS011;2105;52.300;9.182;2023-02-28T04:12:09;8.97;;;8.47;;
4182;SDS011;2105;52.300;9.182;2023-02-28T04:14:36;8.20;;;7.80;;
4182;SDS011;2105;52.300;9.182;2023-02-28T04:17:02;9.10;;;8.43;;
4182;SDS011;2105;52.300;9.182;2023-02-28T04:19:30;8.60;;;8.10;;
4182;SDS011;2105;52.300;9.182;2023-02-28T04:21:56;8.83;;;8.30;;
4182;SDS011;2105;52.300;9.182;2023-02-28T04:24:25;8.47;;;8.07;;
4182;SDS011;2105;52.300;9.182;2023-02-28T04:26:53;9.00;;;8.30;;
4182;SDS011;2105;52.300;9.182;2023-02-28T04:29:22;8.73;;;8.27;;
4182;SDS011;2105;52.300;9.182;2023-02-28T04:31:50;8.80;;;8.20;;
4182;SDS011;2105;52.300;9.182;2023-02-28T04:34:18;9.53;;;8.90;;
4182;SDS011;2105;52.300;9.182;2023-02-28T04:36:46;8.77;;;8.27;;
4182;SDS011;2105;52.300;9.182;2023-02-28T04:39:14;9.10;;;8.60;;
4182;SDS011;2105;52.300;9.182;2023-02-28T04:41:43;9.47;;;8.87;;
4182;SDS011;2105;52.300;9.182;2023-02-28T04:44:10;10.00;;;9.40;;
4182;SDS011;2105;52.300;9.182;2023-02-28T04:46:37;9.47;;;8.77;;
4182;SDS011;2105;52.300;9.182;2023-02-28T04:49:04;10.27;;;9.67;;
4182;SDS011;2105;52.300;9.182;2023-02-28T04:51:31;9.40;;;8.80;;
4182;SDS011;2105;52.300;9.182;2023-02-28T04:53:58;10.00;;;9.30;;
4182;SDS011;2105;52.300;9.182;2023-02-28T04:56:24;10.23;;;9.53;;
4182;SDS011;2105;52.300;9.182;2023-02-28T04:58:52;10.87;;;10.07;;
4182;SDS011;2105;52.300;9.182;2023-02-28T05:01:20;10.40;;;9.70;;
4182;SDS011;2105;52.300;9.182;2023-02-28T05:03:50;9.97;;;9.37;;
4182;SDS011;2105;52.300;9.182;2023-02-28T05:06:18;10.70;;;10.10;;
4182;SDS011;2105;52.300;9.182;2023-02-28T05:08:46;10.40;;;9.70;;
4182;SDS011;2105;52.300;9.182;2023-02-28T05:11:14;10.60;;;9.90;;
4182;SDS011;2105;52.300;9.182;2023-02-28T05:13:43;10.00;;;9.23;;
4182;SDS011;2105;52.300;9.182;2023-02-28T05:16:12;10.43;;;9.83;;
4182;SDS011;2105;52.300;9.182;2023-02-28T05:18:39;9.83;;;9.23;;
4182;SDS011;2105;52.300;9.182;2023-02-28T05:21:12;9.77;;;9.17;;
4182;SDS011;2105;52.300;9.182;2023-02-28T05:23:50;9.60;;;9.10;;
4182;SDS011;2105;52.300;9.182;2023-02-28T05:26:18;10.00;;;9.40;;
4182;SDS011;2105;52.300;9.182;2023-02-28T05:28:44;9.80;;;9.27;;
4182;SDS011;2105;52.300;9.182;2023-02-28T05:31:13;10.63;;;9.93;;
4182;SDS011;2105;52.300;9.182;2023-02-28T05:33:40;10.07;;;9.47;;
4182;SDS011;2105;52.300;9.182;2023-02-28T05:36:07;10.53;;;9.93;;
4182;SDS011;2105;52.300;9.182;2023-02-28T05:38:34;10.90;;;10.03;;
4182;SDS011;2105;52.300;9.182;2023-02-28T05:41:04;10.53;;;9.87;;
4182;SDS011;2105;52.300;9.182;2023-02-28T05:43:31;11.37;;;10.57;;
4182;SDS011;2105;52.300;9.182;2023-02-28T05:45:58;10.80;;;10.10;;
4182;SDS011;2105;52.300;9.182;2023-02-28T05:48:26;10.57;;;9.87;;
4182;SDS011;2105;52.300;9.182;2023-02-28T05:50:53;10.57;;;9.97;;
4182;SDS011;2105;52.300;9.182;2023-02-28T05:53:20;10.87;;;10.10;;
4182;SDS011;2105;52.300;9.182;2023-02-28T05:55:47;10.30;;;9.70;;
4182;SDS011;2105;52.300;9.182;2023-02-28T05:58:13;9.97;;;9.37;;
4182;SDS011;2105;52.300;9.182;2023-02-28T06:00:40;10.50;;;9.70;;
4182;SDS011;2105;52.300;9.182;2023-02-28T06:03:07;11.40;;;10.50;;
4182;SDS011;2105;52.300;9.182;2023-02-28T06:05:35;10.17;;;9.57;;
4182;SDS011;2105;52.300;9.182;2023-02-28T06:08:03;11.10;;;10.40;;
4182;SDS011;2105;52.300;9.182;2023-02-28T06:10:31;10.33;;;9.67;;
4182;SDS011;2105;52.300;9.182;2023-02-28T06:12:59;13.30;;;10.83;;
4182;SDS011;2105;52.300;9.182;2023-02-28T06:15:27;11.47;;;10.67;;
4182;SDS011;2105;52.300;9.182;2023-02-28T06:17:55;11.00;;;10.30;;
4182;SDS011;2105;52.300;9.182;2023-02-28T06:20:22;16.80;;;10.60;;
4182;SDS011;2105;52.300;9.182;2023-02-28T06:22:52;11.30;;;10.60;;
4182;SDS011;2105;52.300;9.182;2023-02-28T06:25:20;11.70;;;10.90;;
4182;SDS011;2105;52.300;9.182;2023-02-28T06:27:48;11.20;;;10.40;;
4182;SDS011;2105;52.300;9.182;2023-02-28T06:30:14;12.53;;;11.40;;
4182;SDS011;2105;52.300;9.182;2023-02-28T06:32:42;12.20;;;11.40;;
4182;SDS011;2105;52.300;9.182;2023-02-28T06:35:09;12.83;;;11.93;;
4182;SDS011;2105;52.300;9.182;2023-02-28T06:37:36;12.33;;;11.43;;
4182;SDS011;2105;52.300;9.182;2023-02-28T06:40:05;11.97;;;11.20;;
4182;SDS011;2105;52.300;9.182;2023-02-28T06:42:32;12.60;;;11.60;;
4182;SDS011;2105;52.300;9.182;2023-02-28T06:44:59;13.90;;;12.70;;
4182;SDS011;2105;52.300;9.182;2023-02-28T06:47:28;13.17;;;12.20;;
4182;SDS011;2105;52.300;9.182;2023-02-28T06:49:56;12.17;;;11.33;;
4182;SDS011;2105;52.300;9.182;2023-02-28T06:52:23;11.93;;;11.10;;
4182;SDS011;2105;52.300;9.182;2023-02-28T06:54:50;12.17;;;11.30;;
4182;SDS011;2105;52.300;9.182;2023-02-28T06:57:26;12.20;;;11.47;;
4182;SDS011;2105;52.300;9.182;2023-02-28T06:59:55;11.30;;;10.60;;
4182;SDS011;2105;52.300;9.182;2023-02-28T07:02:23;11.90;;;11.00;;
4182;SDS011;2105;52.300;9.182;2023-02-28T07:04:50;13.27;;;11.90;;
4182;SDS011;2105;52.300;9.182;2023-02-28T07:07:17;13.53;;;12.43;;
4182;SDS011;2105;52.300;9.182;2023-02-28T07:09:43;13.67;;;12.73;;
4182;SDS011;2105;52.300;9.182;2023-02-28T07:12:10;13.80;;;12.73;;
4182;SDS011;2105;52.300;9.182;2023-02-28T07:14:38;13.73;;;12.73;;
4182;SDS011;2105;52.300;9.182;2023-02-28T07:17:06;13.60;;;12.60;;
4182;SDS011;2105;52.300;9.182;2023-02-28T07:19:34;14.27;;;12.93;;
4182;SDS011;2105;52.300;9.182;2023-02-28T07:22:01;13.80;;;12.90;;
4182;SDS011;2105;52.300;9.182;2023-02-28T07:24:28;14.27;;;13.17;;
4182;SDS011;2105;52.300;9.182;2023-02-28T07:26:55;14.63;;;13.30;;
4182;SDS011;2105;52.300;9.182;2023-02-28T07:29:24;14.10;;;13.00;;
4182;SDS011;2105;52.300;9.182;2023-02-28T07:31:52;14.60;;;13.40;;
4182;SDS011;2105;52.300;9.182;2023-02-28T07:34:19;14.03;;;13.03;;
4182;SDS011;2105;52.300;9.182;2023-02-28T07:36:46;13.70;;;12.63;;
4182;SDS011;2105;52.300;9.182;2023-02-28T07:39:13;15.47;;;13.10;;
4182;SDS011;2105;52.300;9.182;2023-02-28T07:41:39;14.43;;;13.20;;
4182;SDS011;2105;52.300;9.182;2023-02-28T07:44:08;14.60;;;13.40;;
4182;SDS011;2105;52.300;9.182;2023-02-28T07:46:35;14.30;;;13.00;;
4182;SDS011;2105;52.300;9.182;2023-02-28T07:49:04;15.17;;;13.63;;
4182;SDS011;2105;52.300;9.182;2023-02-28T07:51:31;14.27;;;12.97;;
4182;SDS011;2105;52.300;9.182;2023-02-28T07:53:58;14.30;;;13.20;;
4182;SDS011;2105;52.300;9.182;2023-02-28T07:56:25;13.77;;;12.87;;
4182;SDS011;2105;52.300;9.182;2023-02-28T07:58:52;20.40;;;13.40;;
4182;SDS011;2105;52.300;9.182;2023-02-28T08:01:19;23.73;;;13.70;;
4182;SDS011;2105;52.300;9.182;2023-02-28T08:03:45;16.53;;;14.43;;
4182;SDS011;2105;52.300;9.182;2023-02-28T08:06:16;15.33;;;13.97;;
4182;SDS011;2105;52.300;9.182;2023-02-28T08:08:45;15.83;;;14.47;;
4182;SDS011;2105;52.300;9.182;2023-02-28T08:11:12;25.47;;;14.10;;
4182;SDS011;2105;52.300;9.182;2023-02-28T08:13:39;27.53;;;15.27;;
4182;SDS011;2105;52.300;9.182;2023-02-28T08:16:07;14.87;;;13.40;;
4182;SDS011;2105;52.300;9.182;2023-02-28T08:18:34;16.40;;;13.37;;
4182;SDS011;2105;52.300;9.182;2023-02-28T08:21:13;15.00;;;13.70;;
4182;SDS011;2105;52.300;9.182;2023-02-28T08:23:41;20.60;;;13.97;;
4182;SDS011;2105;52.300;9.182;2023-02-28T08:26:10;14.83;;;13.53;;
4182;SDS011;2105;52.300;9.182;2023-02-28T08:28:36;18.10;;;14.60;;
4182;SDS011;2105;52.300;9.182;2023-02-28T08:31:06;17.67;;;14.13;;
4182;SDS011;2105;52.300;9.182;2023-02-28T08:33:35;27.97;;;14.27;;
4182;SDS011;2105;52.300;9.182;2023-02-28T08:36:02;19.00;;;14.70;;
4182;SDS011;2105;52.300;9.182;2023-02-28T08:38:29;20.23;;;14.80;;
4182;SDS011;2105;52.300;9.182;2023-02-28T08:41:01;15.87;;;14.20;;
4182;SDS011;2105;52.300;9.182;2023-02-28T08:43:32;18.17;;;14.60;;
4182;SDS011;2105;52.300;9.182;2023-02-28T08:45:59;20.30;;;16.07;;
4182;SDS011;2105;52.300;9.182;2023-02-28T08:48:26;17.10;;;15.30;;
4182;SDS011;2105;52.300;9.182;2023-02-28T08:50:55;18.00;;;14.70;;
4182;SDS011;2105;52.300;9.182;2023-02-28T08:53:22;16.90;;;15.20;;
4182;SDS011;2105;52.300;9.182;2023-02-28T08:55:55;15.77;;;14.57;;
4182;SDS011;2105;52.300;9.182;2023-02-28T08:58:24;16.20;;;14.60;;
4182;SDS011;2105;52.300;9.182;2023-02-28T09:00:52;18.03;;;14.60;;
4182;SDS011;2105;52.300;9.182;2023-02-28T09:03:19;16.00;;;14.60;;
4182;SDS011;2105;52.300;9.182;2023-02-28T09:05:54;15.70;;;14.20;;
4182;SDS011;2105;52.300;9.182;2023-02-28T09:08:23;15.93;;;14.53;;
4182;SDS011;2105;52.300;9.182;2023-02-28T09:17:01;18.60;;;14.37;;
4182;SDS011;2105;52.300;9.182;2023-02-28T09:19:35;16.53;;;14.50;;
4182;SDS011;2105;52.300;9.182;2023-02-28T09:23:16;16.23;;;14.83;;
4182;SDS011;2105;52.300;9.182;2023-02-28T09:25:01;15.77;;;14.43;;
4182;SDS011;2105;52.300;9.182;2023-02-28T09:27:33;15.40;;;14.10;;
4182;SDS011;2105;52.300;9.182;2023-02-28T09:30:44;15.03;;;13.43;;
4182;SDS011;2105;52.300;9.182;2023-02-28T09:33:25;14.97;;;13.77;;
4182;SDS011;2105;52.300;9.182;2023-02-28T09:35:57;14.63;;;13.53;;
4182;SDS011;2105;52.300;9.182;2023-02-28T09:38:30;15.77;;;14.10;;
4182;SDS011;2105;52.300;9.182;2023-02-28T09:40:58;15.60;;;14.27;;
4182;SDS011;2105;52.300;9.182;2023-02-28T09:43:27;15.93;;;14.30;;
4182;SDS011;2105;52.300;9.182;2023-02-28T09:46:00;16.37;;;14.57;;
4182;SDS011;2105;52.300;9.182;2023-02-28T09:48:37;16.40;;;15.00;;
4182;SDS011;2105;52.300;9.182;2023-02-28T09:51:11;16.20;;;14.90;;
4182;SDS011;2105;52.300;9.182;2023-02-28T09:53:47;15.30;;;14.00;;
4182;SDS011;2105;52.300;9.182;2023-02-28T09:56:15;16.13;;;14.70;;
4182;SDS011;2105;52.300;9.182;2023-02-28T09:58:51;15.80;;;14.50;;
4182;SDS011;2105;52.300;9.182;2023-02-28T10:01:23;16.00;;;14.40;;
4182;SDS011;2105;52.300;9.182;2023-02-28T10:03:55;16.37;;;14.87;;
4182;SDS011;2105;52.300;9.182;2023-02-28T10:06:26;16.77;;;14.93;;
4182;SDS011;2105;52.300;9.182;2023-02-28T10:08:58;16.07;;;14.47;;
4182;SDS011;2105;52.300;9.182;2023-02-28T10:11:28;16.30;;;14.77;;
4182;SDS011;2105;52.300;9.182;2023-02-28T10:13:59;15.50;;;14.30;;
4182;SDS011;2105;52.300;9.182;2023-02-28T10:16:34;16.47;;;15.07;;
4182;SDS011;2105;52.300;9.182;2023-02-28T10:19:05;16.17;;;14.77;;
4182;SDS011;2105;52.300;9.182;2023-02-28T10:21:38;16.70;;;15.03;;
4182;SDS011;2105;52.300;9.182;2023-02-28T10:24:13;16.70;;;15.20;;
4182;SDS011;2105;52.300;9.182;2023-02-28T10:26:58;16.90;;;15.37;;
4182;SDS011;2105;52.300;9.182;2023-02-28T10:29:27;16.77;;;15.07;;
4182;SDS011;2105;52.300;9.182;2023-02-28T10:34:42;16.30;;;14.80;;
4182;SDS011;2105;52.300;9.182;2023-02-28T10:37:09;17.23;;;14.63;;
4182;SDS011;2105;52.300;9.182;2023-02-28T10:39:37;15.80;;;14.60;;
4182;SDS011;2105;52.300;9.182;2023-02-28T10:42:18;16.50;;;15.07;;
4182;SDS011;2105;52.300;9.182;2023-02-28T10:44:47;17.20;;;15.50;;
4182;SDS011;2105;52.300;9.182;2023-02-28T10:47:15;17.57;;;15.80;;
4182;SDS011;2105;52.300;9.182;2023-02-28T10:49:47;17.77;;;15.70;;
4182;SDS011;2105;52.300;9.182;2023-02-28T10:52:16;16.57;;;15.17;;
4182;SDS011;2105;52.300;9.182;2023-02-28T10:55:13;16.70;;;15.20;;
4182;SDS011;2105;52.300;9.182;2023-02-28T10:57:41;16.23;;;15.03;;
4182;SDS011;2105;52.300;9.182;2023-02-28T11:00:12;17.77;;;15.90;;
4182;SDS011;2105;52.300;9.182;2023-02-28T11:02:42;16.20;;;14.90;;
4182;SDS011;2105;52.300;9.182;2023-02-28T11:05:24;17.10;;;15.67;;
4182;SDS011;2105;52.300;9.182;2023-02-28T11:07:53;16.93;;;15.33;;
4182;SDS011;2105;52.300;9.182;2023-02-28T11:10:21;16.50;;;14.93;;
4182;SDS011;2105;52.300;9.182;2023-02-28T11:12:54;16.50;;;15.07;;
4182;SDS011;2105;52.300;9.182;2023-02-28T11:15:22;16.17;;;14.70;;
4182;SDS011;2105;52.300;9.182;2023-02-28T11:17:55;18.33;;;15.53;;
4182;SDS011;2105;52.300;9.182;2023-02-28T11:20:25;16.70;;;15.10;;
4182;SDS011;2105;52.300;9.182;2023-02-28T11:22:54;16.30;;;15.03;;
4182;SDS011;2105;52.300;9.182;2023-02-28T11:25:23;17.57;;;15.53;;
4182;SDS011;2105;52.300;9.182;2023-02-28T11:27:51;21.33;;;15.60;;
4182;SDS011;2105;52.300;9.182;2023-02-28T11:30:23;17.73;;;16.10;;
4182;SDS011;2105;52.300;9.182;2023-02-28T11:33:13;17.23;;;15.73;;
4182;SDS011;2105;52.300;9.182;2023-02-28T11:35:47;17.23;;;15.83;;
4182;SDS011;2105;52.300;9.182;2023-02-28T11:38:15;17.43;;;15.73;;
4182;SDS011;2105;52.300;9.182;2023-02-28T11:40:43;17.70;;;16.17;;
4182;SDS011;2105;52.300;9.182;2023-02-28T11:43:19;17.80;;;16.10;;
4182;SDS011;2105;52.300;9.182;2023-02-28T11:45:57;17.37;;;15.80;;
4182;SDS011;2105;52.300;9.182;2023-02-28T11:48:35;17.07;;;15.67;;
4182;SDS011;2105;52.300;9.182;2023-02-28T11:51:15;18.07;;;16.30;;
4182;SDS011;2105;52.300;9.182;2023-02-28T11:53:51;17.13;;;15.73;;
4182;SDS011;2105;52.300;9.182;2023-02-28T11:56:33;24.30;;;21.70;;
4182;SDS011;2105;52.300;9.182;2023-02-28T11:59:11;17.60;;;15.90;;
4182;SDS011;2105;52.300;9.182;2023-02-28T12:02:03;18.00;;;16.30;;
4182;SDS011;2105;52.300;9.182;2023-02-28T12:04:46;18.00;;;16.50;;
4182;SDS011;2105;52.300;9.182;2023-02-28T12:07:21;16.83;;;15.47;;
4182;SDS011;2105;52.300;9.182;2023-02-28T12:09:58;18.50;;;17.10;;
4182;SDS011;2105;52.300;9.182;2023-02-28T12:12:35;17.53;;;15.93;;
4182;SDS011;2105;52.300;9.182;2023-02-28T12:15:23;17.57;;;16.07;;
4182;SDS011;2105;52.300;9.182;2023-02-28T12:18:08;17.10;;;15.60;;
4182;SDS011;2105;52.300;9.182;2023-02-28T12:20:49;16.73;;;15.43;;
4182;SDS011;2105;52.300;9.182;2023-02-28T12:23:34;17.10;;;15.60;;
4182;SDS011;2105;52.300;9.182;2023-02-28T12:26:12;19.57;;;17.97;;
4182;SDS011;2105;52.300;9.182;2023-02-28T12:28:45;18.83;;;17.17;;
4182;SDS011;2105;52.300;9.182;2023-02-28T12:31:17;16.20;;;14.87;;
4182;SDS011;2105;52.300;9.182;2023-02-28T12:33:48;16.40;;;15.20;;
4182;SDS011;2105;52.300;9.182;2023-02-28T12:36:20;16.87;;;15.40;;
4182;SDS011;2105;52.300;9.182;2023-02-28T12:38:50;15.80;;;14.70;;
4182;SDS011;2105;52.300;9.182;2023-02-28T12:41:21;17.03;;;15.27;;
4182;SDS011;2105;52.300;9.182;2023-02-28T12:43:57;16.53;;;15.13;;
4182;SDS011;2105;52.300;9.182;2023-02-28T12:46:29;15.97;;;14.87;;
4182;SDS011;2105;52.300;9.182;2023-02-28T12:49:02;16.27;;;14.97;;
4182;SDS011;2105;52.300;9.182;2023-02-28T12:51:34;16.20;;;15.00;;
4182;SDS011;2105;52.300;9.182;2023-02-28T12:54:04;16.50;;;15.30;;
4182;SDS011;2105;52.300;9.182;2023-02-28T12:56:42;16.00;;;14.90;;
4182;SDS011;2105;52.300;9.182;2023-02-28T12:59:15;16.10;;;14.90;;
4182;SDS011;2105;52.300;9.182;2023-02-28T13:02:00;16.37;;;15.07;;
4182;SDS011;2105;52.300;9.182;2023-02-28T13:07:43;16.37;;;15.13;;
4182;SDS011;2105;52.300;9.182;2023-02-28T13:10:25;16.50;;;15.10;;
4182;SDS011;2105;52.300;9.182;2023-02-28T13:13:05;17.13;;;15.73;;
4182;SDS011;2105;52.300;9.182;2023-02-28T13:15:31;16.70;;;15.07;;
4182;SDS011;2105;52.300;9.182;2023-02-28T13:18:03;16.10;;;14.90;;
4182;SDS011;2105;52.300;9.182;2023-02-28T13:20:31;16.27;;;14.93;;
4182;SDS011;2105;52.300;9.182;2023-02-28T13:23:02;16.60;;;15.30;;
4182;SDS011;2105;52.300;9.182;2023-02-28T13:31:31;17.73;;;15.07;;
4182;SDS011;2105;52.300;9.182;2023-02-28T13:34:06;15.97;;;14.67;;
4182;SDS011;2105;52.300;9.182;2023-02-28T13:36:40;16.50;;;15.10;;
4182;SDS011;2105;52.300;9.182;2023-02-28T13:45:21;15.97;;;14.77;;
4182;SDS011;2105;52.300;9.182;2023-02-28T13:47:54;15.97;;;14.57;;
4182;SDS011;2105;52.300;9.182;2023-02-28T13:50:27;16.27;;;15.00;;
4182;SDS011;2105;52.300;9.182;2023-02-28T13:53:00;15.67;;;14.57;;
4182;SDS011;2105;52.300;9.182;2023-02-28T13:55:48;15.93;;;14.63;;
4182;SDS011;2105;52.300;9.182;2023-02-28T13:58:35;16.27;;;14.67;;
4182;SDS011;2105;52.300;9.182;2023-02-28T14:01:25;15.80;;;14.23;;
4182;SDS011;2105;52.300;9.182;2023-02-28T14:04:00;15.93;;;14.63;;
4182;SDS011;2105;52.300;9.182;2023-02-28T14:06:46;15.20;;;14.10;;
4182;SDS011;2105;52.300;9.182;2023-02-28T14:09:17;15.57;;;14.30;;
4182;SDS011;2105;52.300;9.182;2023-02-28T14:11:49;15.87;;;14.50;;
4182;SDS011;2105;52.300;9.182;2023-02-28T14:17:17;15.63;;;14.23;;
4182;SDS011;2105;52.300;9.182;2023-02-28T14:19:45;15.60;;;14.40;;
4182;SDS011;2105;52.300;9.182;2023-02-28T14:22:17;16.13;;;14.73;;
4182;SDS011;2105;52.300;9.182;2023-02-28T14:25:08;16.27;;;14.87;;
4182;SDS011;2105;52.300;9.182;2023-02-28T14:27:45;15.60;;;14.50;;
4182;SDS011;2105;52.300;9.182;2023-02-28T14:33:16;15.97;;;14.67;;
4182;SDS011;2105;52.300;9.182;2023-02-28T14:35:56;16.30;;;15.07;;
4182;SDS011;2105;52.300;9.182;2023-02-28T14:38:30;16.07;;;14.97;;
4182;SDS011;2105;52.300;9.182;2023-02-28T14:41:02;16.70;;;15.10;;
4182;SDS011;2105;52.300;9.182;2023-02-28T14:43:47;16.03;;;14.70;;
4182;SDS011;2105;52.300;9.182;2023-02-28T14:46:15;15.70;;;14.30;;
4182;SDS011;2105;52.300;9.182;2023-02-28T14:48:46;15.70;;;14.40;;
4182;SDS011;2105;52.300;9.182;2023-02-28T14:51:17;16.03;;;14.83;;
4182;SDS011;2105;52.300;9.182;2023-02-28T14:53:46;16.90;;;15.40;;
4182;SDS011;2105;52.300;9.182;2023-02-28T14:56:22;16.20;;;14.90;;
4182;SDS011;2105;52.300;9.182;2023-02-28T14:58:51;16.20;;;14.80;;
4182;SDS011;2105;52.300;9.182;2023-02-28T15:01:19;15.60;;;14.40;;
4182;SDS011;2105;52.300;9.182;2023-02-28T15:03:48;16.37;;;15.07;;
4182;SDS011;2105;52.300;9.182;2023-02-28T15:06:23;16.37;;;14.90;;
4182;SDS011;2105;52.300;9.182;2023-02-28T15:11:40;16.00;;;14.90;;
4182;SDS011;2105;52.300;9.182;2023-02-28T15:14:07;16.70;;;15.40;;
4182;SDS011;2105;52.300;9.182;2023-02-28T15:16:40;16.33;;;15.07;;
4182;SDS011;2105;52.300;9.182;2023-02-28T15:19:13;16.20;;;15.00;;
4182;SDS011;2105;52.300;9.182;2023-02-28T15:21:43;16.70;;;15.40;;
4182;SDS011;2105;52.300;9.182;2023-02-28T15:24:15;16.57;;;15.17;;
4182;SDS011;2105;52.300;9.182;2023-02-28T15:26:49;16.73;;;15.07;;
4182;SDS011;2105;52.300;9.182;2023-02-28T15:29:20;16.07;;;14.87;;
4182;SDS011;2105;52.300;9.182;2023-02-28T15:31:49;16.03;;;14.73;;
4182;SDS011;2105;52.300;9.182;2023-02-28T15:34:19;16.63;;;15.13;;
4182;SDS011;2105;52.300;9.182;2023-02-28T15:36:48;16.27;;;14.63;;
4182;SDS011;2105;52.300;9.182;2023-02-28T15:39:18;16.43;;;15.13;;
4182;SDS011;2105;52.300;9.182;2023-02-28T15:41:46;16.70;;;15.20;;
4182;SDS011;2105;52.300;9.182;2023-02-28T15:47:00;16.67;;;15.20;;
4182;SDS011;2105;52.300;9.182;2023-02-28T15:49:31;16.30;;;15.00;;
4182;SDS011;2105;52.300;9.182;2023-02-28T15:52:04;16.97;;;15.23;;
4182;SDS011;2105;52.300;9.182;2023-02-28T15:54:32;16.70;;;15.40;;
4182;SDS011;2105;52.300;9.182;2023-02-28T15:57:02;16.03;;;14.83;;
4182;SDS011;2105;52.300;9.182;2023-02-28T15:59:31;16.97;;;15.60;;